This is the latest recevied weather packets stored in our database for station/object KU9TRY. If no packets are shown the sender has not sent any weather packets the latest 10 day(s).
| Time | Temp. | Humidity | Pressure | Rain* | Wind** | Luminosity | Snow |
|---|---|---|---|---|---|---|---|
| 1778350317 | 22.78° C | 57% | 1011.1 hPa | 0 mm | - | 173 W/m² | - |
| 1778350014 | 22.22° C | 61% | 1010.9 hPa | 0 mm | - | 179 W/m² | - |
| 1778349710 | 22.22° C | 59% | 1011 hPa | 0 mm | - | 132 W/m² | - |
| 1778349406 | 22.22° C | 58% | 1010.9 hPa | 0 mm | - | 162 W/m² | - |
| 1778349104 | 22.22° C | 58% | 1011.1 hPa | 0 mm | - | 211 W/m² | - |
| 1778348800 | 22.22° C | 57% | 1011 hPa | 0 mm | - | 186 W/m² | - |
| 1778348500 | 22.78° C | 59% | 1011 hPa | 0 mm | - | 234 W/m² | - |
| 1778348196 | 22.78° C | 57% | 1011 hPa | 0 mm | - | 228 W/m² | - |
| 1778347892 | 22.22° C | 58% | 1011 hPa | 0 mm | - | 1098 W/m² | - |
| 1778347589 | 22.22° C | 56% | 1011.1 hPa | 0 mm | - | 997 W/m² | - |
| 1778347285 | 22.78° C | 56% | 1011.5 hPa | 0 mm | - | 156 W/m² | - |
| 1778346981 | 22.22° C | 61% | 1011.2 hPa | 0 mm | - | 1060 W/m² | - |
| 1778346677 | 22.22° C | 60% | 1011.5 hPa | 0 mm | - | 213 W/m² | - |
| 1778346374 | 22.78° C | 59% | 1011.6 hPa | 0 mm | - | 206 W/m² | - |
| 1778346070 | 22.22° C | 61% | 1011.6 hPa | 0 mm | - | 1054 W/m² | - |
| 1778345768 | 21.67° C | 63% | 1011.6 hPa | 0 mm | - | 1090 W/m² | - |
| 1778345464 | 22.22° C | 61% | 1011.7 hPa | 0 mm | - | 195 W/m² | - |
| 1778345160 | 22.22° C | 61% | 1011.8 hPa | 0 mm | - | 212 W/m² | - |
| 1778344856 | 22.22° C | 63% | 1011.7 hPa | 0 mm | - | 1095 W/m² | - |
| 1778344554 | 22.22° C | 60% | 1011.8 hPa | 0 mm | - | 1043 W/m² | - |
| 1778344254 | 21.67° C | 60% | 1012.1 hPa | 0 mm | - | 1019 W/m² | - |
| 1778343952 | 21.67° C | 63% | 1011.9 hPa | 0 mm | - | 985 W/m² | - |
| 1778343648 | 21.11° C | 62% | 1012 hPa | 0 mm | - | 985 W/m² | - |
| 1778343344 | 21.67° C | 62% | 1011.8 hPa | 0 mm | - | 1004 W/m² | - |
| 1778343039 | 21.11° C | 69% | 1012 hPa | 0 mm | - | 1079 W/m² | - |
* Rain latest hour (hover to see other rain measurements)
** Current wind speed in m/s (hover to see current wind gust speed)